Time;durP1;ratioP1;P1;durP2;ratioP2;P2;SDS_P1;SDS_P2;PMS_P1;PMS_P2;Temp;Humidity;BMP_temperature;BMP_pressure;BME280_temperature;BME280_humidity;BME280_pressure;Samples;Min_cycle;Max_cycle;Signal;HPM_P1;HPM_P2
2022/07/28 00:01:26;;;;;;;3.03;0.80;;;13.90;92.20;;;;;;4114700;28;20054;-83
2022/07/28 00:03:27;;;;;;;2.67;0.88;;;13.80;92.30;;;;;;4115048;28;20102;-82
2022/07/28 00:05:29;;;;;;;1.40;0.90;;;13.80;92.60;;;;;;4115119;28;20054;-82
2022/07/28 00:07:30;;;;;;;3.03;0.88;;;13.70;92.80;;;;;;4131724;28;20042;-82
2022/07/28 00:09:31;;;;;;;1.95;0.90;;;13.70;92.90;;;;;;4114372;28;20507;-82
2022/07/28 00:11:33;;;;;;;2.60;0.90;;;13.70;93.10;;;;;;4113816;28;20105;-82
2022/07/28 00:13:34;;;;;;;3.42;0.90;;;13.60;93.10;;;;;;4114839;28;20059;-82
2022/07/28 00:15:35;;;;;;;0.88;0.70;;;13.50;93.20;;;;;;4114391;28;20102;-82
2022/07/28 00:17:37;;;;;;;3.05;1.10;;;13.50;93.30;;;;;;4114694;28;20047;-82
2022/07/28 00:19:39;;;;;;;3.72;1.20;;;13.50;93.30;;;;;;4114346;28;20047;-82
2022/07/28 00:21:40;;;;;;;1.50;0.90;;;13.40;93.40;;;;;;4132196;28;20134;-83
2022/07/28 00:23:41;;;;;;;2.47;1.33;;;13.40;93.70;;;;;;4114474;28;20159;-82
2022/07/28 00:25:41;;;;;;;1.80;1.00;;;13.40;93.80;;;;;;4146580;28;20081;-82
2022/07/28 00:27:42;;;;;;;0.90;0.60;;;13.40;93.80;;;;;;4114676;28;20053;-83
2022/07/28 00:29:43;;;;;;;1.42;0.80;;;13.40;93.80;;;;;;4114701;28;20122;-83
2022/07/28 00:31:44;;;;;;;1.35;0.82;;;13.40;93.90;;;;;;4114391;28;20059;-83
2022/07/28 00:33:45;;;;;;;2.28;0.73;;;13.30;93.90;;;;;;4114888;28;20046;-83
2022/07/28 00:35:45;;;;;;;2.88;0.98;;;13.30;93.90;;;;;;4131845;28;20046;-83
2022/07/28 00:37:46;;;;;;;1.90;0.75;;;13.30;94.00;;;;;;4146912;28;20073;-83
2022/07/28 00:39:47;;;;;;;4.07;1.00;;;13.30;94.00;;;;;;4131740;28;20514;-82
2022/07/28 00:41:48;;;;;;;3.03;0.93;;;13.20;93.90;;;;;;4098074;29;20050;-82
2022/07/28 00:43:50;;;;;;;5.47;1.67;;;13.30;94.00;;;;;;4098640;29;20075;-83
2022/07/28 00:45:51;;;;;;;1.90;1.00;;;13.30;94.10;;;;;;4132556;28;20145;-82
2022/07/28 00:47:51;;;;;;;3.00;0.95;;;13.20;94.20;;;;;;4115172;28;20279;-82
2022/07/28 00:49:52;;;;;;;3.78;1.05;;;13.20;94.20;;;;;;4132167;28;20491;-82
2022/07/28 00:51:53;;;;;;;1.40;0.85;;;13.20;94.30;;;;;;4114949;28;20138;-82
2022/07/28 00:53:54;;;;;;;4.82;1.20;;;13.30;94.40;;;;;;4099409;28;20051;-82
2022/07/28 00:55:57;;;;;;;3.05;0.80;;;13.20;94.40;;;;;;4132306;28;20064;-82
2022/07/28 00:57:59;;;;;;;3.83;1.02;;;13.20;94.50;;;;;;4132241;28;20097;-82
2022/07/28 01:00:00;;;;;;;3.85;1.20;;;13.20;94.60;;;;;;4115053;28;20058;-82
2022/07/28 01:02:03;;;;;;;6.78;1.80;;;13.20;94.80;;;;;;4131903;28;20050;-82
2022/07/28 01:04:04;;;;;;;1.63;0.88;;;13.10;94.90;;;;;;4130511;28;20064;-81
2022/07/28 01:06:42;;;;;;;2.95;0.70;;;13.10;95.00;;;;;;4130797;28;20046;-82
2022/07/28 01:08:55;;;;;;;3.22;0.70;;;13.20;95.50;;;;;;4115033;28;20412;-82
2022/07/28 01:11:01;;;;;;;1.45;0.70;;;13.10;95.40;;;;;;4116130;28;20047;-82
2022/07/28 01:13:03;;;;;;;2.83;1.05;;;13.10;95.30;;;;;;4131366;28;20054;-82
2022/07/28 01:15:41;;;;;;;2.33;1.02;;;13.10;95.50;;;;;;4116719;28;20133;-82
2022/07/28 01:18:03;;;;;;;2.80;1.00;;;13.10;96.00;;;;;;4116462;28;20535;-82
2022/07/28 01:20:29;;;;;;;2.95;1.15;;;13.10;95.70;;;;;;4116481;28;20055;-82
2022/07/28 01:22:33;;;;;;;4.20;1.40;;;13.00;96.00;;;;;;4131183;28;20049;-82
2022/07/28 01:25:00;;;;;;;5.60;1.45;;;13.00;95.70;;;;;;4135052;28;20057;-82
2022/07/28 01:27:09;;;;;;;3.15;1.00;;;13.00;96.00;;;;;;4117841;28;20078;-82
2022/07/28 01:29:48;;;;;;;4.03;0.95;;;13.00;95.90;;;;;;4134820;28;20046;-82
2022/07/28 01:32:12;;;;;;;1.67;0.80;;;13.00;96.20;;;;;;4117575;28;20447;-82
2022/07/28 01:34:17;;;;;;;3.70;1.20;;;12.90;96.00;;;;;;4102338;29;20648;-82
2022/07/28 01:36:24;;;;;;;1.30;1.00;;;12.90;95.80;;;;;;4135337;28;20491;-82
2022/07/28 01:38:26;;;;;;;2.53;0.75;;;12.90;95.90;;;;;;4117855;28;20082;-81
2022/07/28 01:40:32;;;;;;;1.45;0.85;;;12.80;96.00;;;;;;4135476;28;20223;-82
2022/07/28 01:42:42;;;;;;;3.28;1.50;;;12.90;96.10;;;;;;4134775;28;20045;-82
2022/07/28 01:44:47;;;;;;;2.67;0.90;;;12.90;96.20;;;;;;4117622;28;20129;-82
2022/07/28 01:46:50;;;;;;;0.90;0.80;;;12.80;96.20;;;;;;4150148;28;20414;-82
2022/07/28 01:48:52;;;;;;;1.48;1.10;;;12.90;96.20;;;;;;4150231;28;20057;-82
2022/07/28 01:50:55;;;;;;;3.20;1.15;;;12.80;96.40;;;;;;4117805;28;20154;-82
2022/07/28 01:52:57;;;;;;;2.65;1.25;;;12.80;96.40;;;;;;4117061;28;20481;-82
2022/07/28 01:55:00;;;;;;;4.80;0.82;;;12.80;96.40;;;;;;4150035;28;20049;-82
2022/07/28 01:57:04;;;;;;;2.97;1.00;;;12.80;96.50;;;;;;4117963;28;20046;-82
2022/07/28 01:59:08;;;;;;;2.17;1.05;;;12.80;96.60;;;;;;4135434;28;20371;-82
2022/07/28 02:01:12;;;;;;;3.13;1.13;;;12.80;96.70;;;;;;4117742;28;20054;-82
2022/07/28 02:03:14;;;;;;;3.42;1.02;;;12.80;96.80;;;;;;4134668;28;20189;-82
2022/07/28 02:05:18;;;;;;;2.97;1.00;;;12.80;96.90;;;;;;4117159;28;20051;-82
2022/07/28 02:07:21;;;;;;;2.50;1.05;;;12.80;97.00;;;;;;4133332;28;20039;-82
2022/07/28 02:09:23;;;;;;;3.28;1.10;;;12.80;97.20;;;;;;4100901;29;20060;-82
2022/07/28 02:11:40;;;;;;;10.18;1.55;;;12.80;97.20;;;;;;4101147;29;20122;-82
2022/07/28 02:13:42;;;;;;;2.22;1.42;;;12.80;97.30;;;;;;4134267;28;20109;-81
2022/07/28 02:15:43;;;;;;;1.75;0.80;;;12.80;97.40;;;;;;4116957;28;20059;-82
2022/07/28 02:17:46;;;;;;;2.45;1.00;;;12.80;97.50;;;;;;4148351;28;20064;-82
2022/07/28 02:19:47;;;;;;;2.90;0.70;;;12.80;97.50;;;;;;4148732;28;20061;-82
2022/07/28 02:21:49;;;;;;;2.10;0.80;;;12.80;97.50;;;;;;4116313;28;20058;-82
2022/07/28 02:23:52;;;;;;;5.00;1.38;;;12.70;97.40;;;;;;4116364;28;20173;-82
2022/07/28 02:25:55;;;;;;;1.95;0.90;;;12.70;97.50;;;;;;4133782;28;20050;-82
2022/07/28 02:28:03;;;;;;;2.88;0.98;;;12.70;97.70;;;;;;4133936;28;20046;-82
2022/07/28 02:30:23;;;;;;;3.55;1.20;;;12.70;97.80;;;;;;4116351;28;20062;-82
2022/07/28 02:32:32;;;;;;;1.95;0.85;;;12.70;97.80;;;;;;4148665;28;20130;-81
2022/07/28 02:34:37;;;;;;;1.58;0.80;;;12.70;97.90;;;;;;4116053;28;20062;-82
2022/07/28 02:36:44;;;;;;;3.13;1.02;;;12.70;97.80;;;;;;4134518;28;20093;-80
2022/07/28 02:38:49;;;;;;;3.88;1.33;;;12.70;97.90;;;;;;4144270;28;20058;-81
2022/07/28 02:40:54;;;;;;;7.80;1.08;;;12.70;97.90;;;;;;4132858;28;20077;-81
2022/07/28 02:42:57;;;;;;;2.88;1.00;;;12.70;98.00;;;;;;4101766;28;20043;-81
2022/07/28 02:45:01;;;;;;;2.92;1.23;;;12.70;98.10;;;;;;4101355;29;20087;-80
2022/07/28 02:47:05;;;;;;;2.70;1.25;;;12.70;98.30;;;;;;4102027;29;20040;-81
2022/07/28 02:49:12;;;;;;;2.03;1.10;;;12.70;98.40;;;;;;4101179;29;20480;-81
2022/07/28 02:51:16;;;;;;;3.42;1.20;;;12.70;98.50;;;;;;4100342;29;20763;-81
2022/07/28 02:53:17;;;;;;;3.33;1.58;;;12.70;98.60;;;;;;4100448;28;20050;-82
2022/07/28 02:55:18;;;;;;;3.42;1.40;;;12.70;98.70;;;;;;4101871;29;20098;-81
2022/07/28 02:57:21;;;;;;;2.33;1.10;;;12.70;98.80;;;;;;4100300;29;20047;-81
2022/07/28 02:59:23;;;;;;;3.15;1.50;;;12.70;99.00;;;;;;4100514;29;20522;-81
2022/07/28 03:01:24;;;;;;;2.45;1.20;;;12.80;99.00;;;;;;4101721;28;20411;-81
2022/07/28 03:03:26;;;;;;;4.50;1.50;;;12.80;99.00;;;;;;4101664;28;20479;-82
2022/07/28 03:05:27;;;;;;;1.70;1.38;;;12.80;99.00;;;;;;4100386;29;20452;-81
2022/07/28 03:07:30;;;;;;;1.77;1.10;;;12.90;99.40;;;;;;4100533;29;20051;-82
2022/07/28 03:09:37;;;;;;;1.73;1.05;;;13.00;99.20;;;;;;4102000;28;20420;-81
2022/07/28 03:11:51;;;;;;;3.42;0.68;;;13.00;99.20;;;;;;4100431;29;20078;-81
2022/07/28 03:13:52;;;;;;;1.38;0.80;;;13.00;99.40;;;;;;4099763;29;20047;-81
2022/07/28 03:15:53;;;;;;;3.58;1.00;;;13.00;99.40;;;;;;4099754;29;20581;-81
2022/07/28 03:17:53;;;;;;;2.33;1.02;;;13.00;99.40;;;;;;4099243;29;20047;-81
2022/07/28 03:19:54;;;;;;;3.08;1.15;;;13.10;99.40;;;;;;4101179;29;20148;-82
2022/07/28 03:21:56;;;;;;;2.55;0.90;;;13.10;99.50;;;;;;4100019;29;20094;-82
2022/07/28 03:23:57;;;;;;;3.05;0.88;;;13.10;99.50;;;;;;4100149;29;20059;-82
2022/07/28 03:26:04;;;;;;;2.50;1.45;;;13.10;99.50;;;;;;4100565;29;20062;-81
2022/07/28 03:28:12;;;;;;;2.40;1.08;;;13.10;99.60;;;;;;4100554;29;20138;-81
2022/07/28 03:30:23;;;;;;;1.37;0.80;;;13.20;99.70;;;;;;4100923;29;20063;-82
2022/07/28 03:32:27;;;;;;;5.70;1.52;;;13.20;99.70;;;;;;4101328;29;20110;-82
2022/07/28 03:34:28;;;;;;;2.08;1.20;;;13.20;99.80;;;;;;4103136;29;20047;-82
2022/07/28 03:36:38;;;;;;;3.03;1.50;;;13.20;99.80;;;;;;4101625;29;20050;-82
2022/07/28 03:38:44;;;;;;;3.88;1.15;;;13.20;99.90;;;;;;4113315;28;20125;-80
2022/07/28 03:40:47;;;;;;;2.50;1.40;;;13.20;99.90;;;;;;4118583;29;20027;-81
2022/07/28 03:42:50;;;;;;;9.63;2.10;;;13.30;99.90;;;;;;4118073;29;20051;-82
2022/07/28 03:44:51;;;;;;;2.25;1.30;;;13.30;99.90;;;;;;4117684;28;20043;-80
2022/07/28 03:46:52;;;;;;;2.53;1.50;;;13.20;99.90;;;;;;4117274;29;20079;-81
2022/07/28 03:48:53;;;;;;;3.17;1.40;;;13.20;99.90;;;;;;4100293;29;20062;-81
2022/07/28 03:50:53;;;;;;;2.38;1.33;;;13.20;99.90;;;;;;4116993;28;20107;-80
2022/07/28 03:52:55;;;;;;;5.57;1.70;;;13.20;99.90;;;;;;4116528;28;20039;-80
2022/07/28 03:54:56;;;;;;;2.15;1.35;;;13.20;99.90;;;;;;4101736;29;20055;-81
2022/07/28 03:56:58;;;;;;;3.45;1.42;;;13.20;99.90;;;;;;4101031;29;20043;-81
2022/07/28 03:58:58;;;;;;;2.88;1.23;;;13.20;99.90;;;;;;4099454;29;20051;-81
2022/07/28 04:00:59;;;;;;;6.38;2.22;;;13.30;99.90;;;;;;4099270;29;20397;-81
2022/07/28 04:03:00;;;;;;;2.28;1.50;;;13.30;99.90;;;;;;4099478;29;20054;-82
2022/07/28 04:05:02;;;;;;;3.50;1.65;;;13.30;99.90;;;;;;4099632;29;20058;-82
2022/07/28 04:07:03;;;;;;;4.72;1.60;;;13.30;99.90;;;;;;4100560;29;20051;-82
2022/07/28 04:09:04;;;;;;;2.95;1.35;;;13.30;99.90;;;;;;4100242;29;20507;-82
2022/07/28 04:11:06;;;;;;;7.38;2.38;;;13.20;99.90;;;;;;4098809;29;20051;-82
2022/07/28 04:13:07;;;;;;;5.30;1.65;;;13.20;99.90;;;;;;4099983;29;20515;-82
2022/07/28 04:15:13;;;;;;;6.30;1.83;;;13.20;99.90;;;;;;4099535;29;20058;-82
2022/07/28 04:17:13;;;;;;;4.55;1.90;;;13.20;99.90;;;;;;4098417;29;20059;-82
2022/07/28 04:19:15;;;;;;;3.58;1.52;;;13.10;99.90;;;;;;4098540;29;20179;-82
2022/07/28 04:21:15;;;;;;;5.53;1.73;;;13.10;99.90;;;;;;4098411;29;20133;-82
2022/07/28 04:23:18;;;;;;;3.47;1.80;;;13.10;99.90;;;;;;4082779;29;20051;-82
2022/07/28 04:25:22;;;;;;;2.90;1.52;;;13.00;99.90;;;;;;4100119;28;20055;-82
2022/07/28 04:27:24;;;;;;;4.22;1.17;;;13.00;99.90;;;;;;4098748;29;20075;-81
2022/07/28 04:29:26;;;;;;;1.70;1.10;;;12.90;99.90;;;;;;4098294;29;20058;-82
2022/07/28 04:31:27;;;;;;;2.03;1.25;;;12.90;99.90;;;;;;4100167;29;20043;-82
2022/07/28 04:33:29;;;;;;;5.15;1.83;;;12.90;99.90;;;;;;4099236;28;20061;-82
2022/07/28 04:35:30;;;;;;;2.67;1.33;;;12.90;99.90;;;;;;4102424;28;20055;-82
2022/07/28 04:37:30;;;;;;;1.58;1.30;;;12.90;99.90;;;;;;4101041;28;20059;-81
2022/07/28 04:39:31;;;;;;;6.53;2.25;;;12.80;99.90;;;;;;4122259;28;20053;-82
2022/07/28 04:41:32;;;;;;;2.75;1.23;;;12.80;99.90;;;;;;4115097;28;20042;-82
2022/07/28 04:43:33;;;;;;;3.28;1.30;;;12.90;99.90;;;;;;4134412;28;20049;-81
2022/07/28 04:45:33;;;;;;;4.57;1.55;;;12.90;99.90;;;;;;4131458;28;20446;-82
2022/07/28 04:47:34;;;;;;;2.67;1.30;;;12.90;99.90;;;;;;4115246;28;20515;-82
2022/07/28 04:49:36;;;;;;;6.45;1.55;;;12.90;99.90;;;;;;4131993;28;20046;-82
2022/07/28 04:51:36;;;;;;;3.65;1.30;;;12.90;99.90;;;;;;4131805;28;20042;-82
2022/07/28 04:53:37;;;;;;;3.20;1.20;;;12.90;99.90;;;;;;4132284;28;20549;-82
2022/07/28 04:55:38;;;;;;;4.10;1.50;;;13.00;99.90;;;;;;4115192;28;20050;-82
2022/07/28 04:57:38;;;;;;;4.95;1.40;;;13.00;99.90;;;;;;4133760;28;20054;-82
2022/07/28 04:59:39;;;;;;;5.20;1.48;;;13.10;99.90;;;;;;4117739;28;20047;-82
2022/07/28 05:01:41;;;;;;;5.25;1.65;;;13.10;99.90;;;;;;4118108;28;20054;-81
2022/07/28 05:03:42;;;;;;;2.72;1.20;;;13.10;99.90;;;;;;4135423;28;20050;-81
2022/07/28 05:05:42;;;;;;;3.03;1.42;;;13.10;99.90;;;;;;4134968;28;20050;-81
2022/07/28 05:07:43;;;;;;;3.65;1.25;;;13.20;99.90;;;;;;4117816;28;20097;-81
2022/07/28 05:09:44;;;;;;;6.70;1.95;;;13.20;99.90;;;;;;4135186;28;20046;-81
2022/07/28 05:11:44;;;;;;;5.10;1.40;;;13.20;99.90;;;;;;4134476;28;20546;-81
2022/07/28 05:13:45;;;;;;;4.63;1.42;;;13.30;99.90;;;;;;4134896;28;20133;-82
2022/07/28 05:15:46;;;;;;;5.43;3.10;;;13.30;99.90;;;;;;4117590;28;20051;-82
2022/07/28 05:17:46;;;;;;;3.35;1.30;;;13.40;99.90;;;;;;4133538;28;20399;-81
2022/07/28 05:19:47;;;;;;;2.10;1.05;;;13.40;99.90;;;;;;4137082;28;20042;-81
2022/07/28 05:21:51;;;;;;;5.47;1.30;;;13.40;99.90;;;;;;4135476;28;20104;-81
2022/07/28 05:23:52;;;;;;;4.82;1.20;;;13.50;99.90;;;;;;4134705;28;20042;-82
2022/07/28 05:25:53;;;;;;;4.43;1.17;;;13.50;99.90;;;;;;4101734;29;20114;-81
2022/07/28 05:27:54;;;;;;;5.60;1.65;;;13.60;99.90;;;;;;4117042;28;20049;-82
2022/07/28 05:29:55;;;;;;;3.22;1.00;;;13.60;99.90;;;;;;4119251;28;20070;-82
2022/07/28 05:31:56;;;;;;;4.22;1.20;;;13.70;99.90;;;;;;4119527;28;20526;-81
2022/07/28 05:33:57;;;;;;;5.72;1.45;;;13.70;99.90;;;;;;4134129;28;20046;-81
2022/07/28 05:35:59;;;;;;;2.55;1.02;;;13.80;99.90;;;;;;4119266;28;20085;-81
2022/07/28 05:37:59;;;;;;;2.58;1.40;;;14.00;99.90;;;;;;4148995;28;20041;-82
2022/07/28 05:40:08;;;;;;;3.42;1.23;;;14.00;99.90;;;;;;4116253;28;20156;-82
2022/07/28 05:42:10;;;;;;;;;;;14.00;99.90;;;;;;4134166;28;20115;-81
2022/07/28 05:44:12;;;;;;;3.80;1.40;;;14.10;99.90;;;;;;4116559;28;19930;-81
2022/07/28 05:46:12;;;;;;;2.95;1.48;;;14.20;99.90;;;;;;4118325;28;20443;-81
2022/07/28 05:48:19;;;;;;;4.70;1.30;;;14.20;99.90;;;;;;4101166;29;20130;-82
2022/07/28 05:50:21;;;;;;;2.72;1.30;;;14.20;99.90;;;;;;4117904;28;20097;-82
2022/07/28 05:52:22;;;;;;;6.93;1.95;;;14.30;99.90;;;;;;4132613;28;20645;-82
2022/07/28 05:54:22;;;;;;;3.45;1.30;;;14.30;99.90;;;;;;4117746;28;20054;-82
2022/07/28 05:56:23;;;;;;;4.13;1.40;;;14.40;99.90;;;;;;4118291;28;20061;-82
2022/07/28 05:58:28;;;;;;;3.00;1.35;;;14.40;99.90;;;;;;4113609;28;20042;-82
2022/07/28 06:00:32;;;;;;;1.42;0.88;;;14.50;99.90;;;;;;4134320;28;20050;-82
2022/07/28 06:02:33;;;;;;;3.25;1.75;;;14.50;99.90;;;;;;4133643;28;20065;-82
2022/07/28 06:04:34;;;;;;;7.07;1.45;;;14.60;99.90;;;;;;4116490;28;20127;-82
2022/07/28 06:06:35;;;;;;;8.20;1.42;;;14.70;99.90;;;;;;4116684;28;20046;-82
2022/07/28 06:08:35;;;;;;;4.28;2.05;;;14.70;99.90;;;;;;4132287;28;20562;-82
2022/07/28 06:12:56;;;;;;;3.78;1.40;;;14.80;99.90;;;;;;4133479;28;20554;-82
2022/07/28 06:14:57;;;;;;;3.78;1.50;;;14.90;99.90;;;;;;4148611;28;20053;-83
2022/07/28 06:16:58;;;;;;;3.33;1.30;;;14.90;99.90;;;;;;4133050;28;20509;-83
2022/07/28 06:18:58;;;;;;;4.45;2.08;;;15.00;99.90;;;;;;4116078;28;20082;-83
2022/07/28 06:20:59;;;;;;;2.88;1.10;;;15.00;99.80;;;;;;4116483;28;20053;-83
2022/07/28 06:23:00;;;;;;;4.25;1.60;;;15.00;99.70;;;;;;4132732;28;20081;-83
2022/07/28 06:25:00;;;;;;;9.15;1.58;;;15.10;99.70;;;;;;4100541;29;20135;-83
2022/07/28 06:27:01;;;;;;;4.05;1.55;;;15.10;99.60;;;;;;4133143;28;20046;-83
2022/07/28 06:29:02;;;;;;;4.93;1.98;;;15.10;99.60;;;;;;4133238;28;20053;-83
2022/07/28 06:31:03;;;;;;;3.20;1.27;;;15.10;99.60;;;;;;4117088;28;20097;-83
2022/07/28 06:33:04;;;;;;;2.70;1.02;;;15.20;99.60;;;;;;4116715;28;20063;-83
2022/07/28 06:35:06;;;;;;;2.08;1.30;;;15.20;99.70;;;;;;4116341;28;20441;-83
2022/07/28 06:37:06;;;;;;;3.05;1.33;;;15.30;99.70;;;;;;4115955;28;20050;-83
2022/07/28 06:39:07;;;;;;;7.03;1.33;;;15.30;99.90;;;;;;4132829;28;20050;-83
2022/07/28 06:41:09;;;;;;;3.55;1.45;;;15.40;99.90;;;;;;4115463;28;20082;-83
2022/07/28 06:43:12;;;;;;;3.63;1.30;;;15.40;99.90;;;;;;4115906;28;20039;-83
2022/07/28 06:45:13;;;;;;;3.75;1.50;;;15.50;99.90;;;;;;4132925;28;20054;-83
2022/07/28 06:47:14;;;;;;;4.80;1.30;;;15.50;99.90;;;;;;4100395;29;20082;-83
2022/07/28 06:49:14;;;;;;;5.03;1.27;;;15.50;99.90;;;;;;4100443;29;20457;-83
2022/07/28 06:51:17;;;;;;;4.35;1.50;;;15.50;99.90;;;;;;4115217;28;20408;-83
2022/07/28 06:53:18;;;;;;;1.70;1.13;;;15.60;99.90;;;;;;4147327;28;20413;-83
2022/07/28 06:55:19;;;;;;;3.67;1.33;;;15.50;99.90;;;;;;4115649;28;20086;-82
2022/07/28 06:57:20;;;;;;;2.13;1.48;;;15.50;99.90;;;;;;4133032;28;20042;-83
2022/07/28 06:59:22;;;;;;;4.38;1.40;;;15.40;99.90;;;;;;4116568;28;20173;-83
2022/07/28 07:01:23;;;;;;;3.15;1.67;;;15.30;99.90;;;;;;4149557;28;20058;-83
2022/07/28 07:03:24;;;;;;;3.97;1.38;;;15.20;99.90;;;;;;4117856;28;20051;-82
2022/07/28 07:05:27;;;;;;;2.38;1.40;;;15.10;99.90;;;;;;4117497;28;20585;-83
2022/07/28 07:07:27;;;;;;;7.88;1.52;;;15.10;99.90;;;;;;4150706;28;20077;-83
2022/07/28 07:09:28;;;;;;;7.68;1.38;;;15.00;99.90;;;;;;4133791;28;20069;-83
2022/07/28 07:11:29;;;;;;;4.97;2.05;;;14.90;99.90;;;;;;4132194;28;20042;-83
2022/07/28 07:13:31;;;;;;;4.90;1.55;;;14.90;99.90;;;;;;4115982;28;20089;-83
2022/07/28 07:15:31;;;;;;;5.63;1.90;;;14.80;99.90;;;;;;4116274;28;20058;-82
2022/07/28 07:17:32;;;;;;;13.23;3.13;;;14.80;99.90;;;;;;4132969;28;20050;-83
2022/07/28 07:19:33;;;;;;;4.15;1.60;;;14.80;99.90;;;;;;4131768;28;20057;-83
2022/07/28 07:21:33;;;;;;;2.85;1.45;;;14.80;99.90;;;;;;4132942;28;20105;-83
2022/07/28 07:23:34;;;;;;;3.58;1.27;;;14.90;99.90;;;;;;4132538;28;20045;-83
2022/07/28 07:25:35;;;;;;;3.90;1.60;;;14.90;99.90;;;;;;4115093;28;20120;-83
2022/07/28 07:27:36;;;;;;;2.65;1.30;;;14.90;99.90;;;;;;4133227;28;20050;-82
2022/07/28 07:29:37;;;;;;;3.90;1.30;;;15.00;99.90;;;;;;4115754;28;20058;-83
2022/07/28 07:31:39;;;;;;;6.57;1.40;;;15.10;99.90;;;;;;4147478;28;20129;-82
2022/07/28 07:33:39;;;;;;;7.88;1.42;;;15.10;99.90;;;;;;4148006;28;20045;-83
2022/07/28 07:35:41;;;;;;;3.05;1.08;;;15.10;99.90;;;;;;4132831;28;20048;-83
2022/07/28 07:37:42;;;;;;;5.72;1.55;;;15.10;99.90;;;;;;4132206;28;20112;-83
2022/07/28 07:39:42;;;;;;;1.45;0.90;;;15.10;99.90;;;;;;4146950;28;20081;-83
2022/07/28 07:41:43;;;;;;;4.55;1.15;;;15.10;99.90;;;;;;4130680;28;20118;-83
2022/07/28 07:43:44;;;;;;;1.98;0.93;;;15.20;99.90;;;;;;4131111;28;20105;-83
2022/07/28 07:45:45;;;;;;;2.45;1.35;;;15.20;99.90;;;;;;4131950;28;20038;-83
2022/07/28 07:47:46;;;;;;;3.50;1.50;;;15.20;99.90;;;;;;4114895;28;20054;-83
2022/07/28 07:49:46;;;;;;;2.20;1.10;;;15.30;99.90;;;;;;4114336;28;20046;-83
2022/07/28 07:51:47;;;;;;;5.28;1.75;;;15.30;99.90;;;;;;4098967;29;20059;-83
2022/07/28 07:53:48;;;;;;;6.88;1.67;;;15.30;99.80;;;;;;4098740;28;20055;-83
2022/07/28 07:55:50;;;;;;;5.68;1.40;;;15.40;99.70;;;;;;4099178;29;20047;-83
2022/07/28 07:57:52;;;;;;;4.05;1.23;;;15.40;99.60;;;;;;4147019;28;20049;-83
2022/07/28 07:59:53;;;;;;;6.03;1.27;;;15.40;99.50;;;;;;4117446;28;20122;-83
2022/07/28 08:01:54;;;;;;;3.72;1.83;;;15.50;99.50;;;;;;4149956;28;20045;-83
2022/07/28 08:03:54;;;;;;;6.65;1.50;;;15.50;99.40;;;;;;4098888;29;20062;-83
2022/07/28 08:05:56;;;;;;;1.98;0.98;;;15.60;99.30;;;;;;4115303;28;20515;-83
2022/07/28 08:07:57;;;;;;;3.92;0.95;;;15.60;99.20;;;;;;4097915;29;20118;-83
2022/07/28 08:09:58;;;;;;;12.02;1.50;;;15.70;98.90;;;;;;4132907;28;20042;-83
2022/07/28 08:12:01;;;;;;;8.02;1.00;;;15.70;98.70;;;;;;4100500;29;20138;-83
2022/07/28 08:14:01;;;;;;;53.22;4.68;;;15.80;98.60;;;;;;4146727;28;20045;-83
2022/07/28 08:16:02;;;;;;;27.98;3.20;;;15.90;98.40;;;;;;4114506;28;20058;-81
2022/07/28 08:18:03;;;;;;;16.85;2.97;;;15.90;98.20;;;;;;4114487;28;20499;-82
2022/07/28 08:20:04;;;;;;;2.65;0.98;;;16.00;98.10;;;;;;4146495;28;20132;-82
2022/07/28 08:22:05;;;;;;;4.13;0.90;;;16.10;97.90;;;;;;4114044;28;20503;-82
2022/07/28 08:24:07;;;;;;;4.55;1.20;;;16.10;97.70;;;;;;4114324;28;20078;-82
2022/07/28 08:26:08;;;;;;;4.10;0.85;;;16.20;97.60;;;;;;4114497;28;20125;-82
2022/07/28 08:28:08;;;;;;;2.90;1.25;;;16.30;97.50;;;;;;4113985;28;20054;-82
2022/07/28 08:30:11;;;;;;;2.50;0.80;;;16.40;97.50;;;;;;4131717;28;20077;-82
2022/07/28 08:32:11;;;;;;;6.53;1.55;;;16.50;97.40;;;;;;4115466;28;20051;-82
2022/07/28 08:34:12;;;;;;;15.82;2.00;;;16.60;97.20;;;;;;4135179;28;20064;-82
2022/07/28 08:36:13;;;;;;;7.88;0.80;;;16.70;96.70;;;;;;4118097;28;20075;-82
2022/07/28 08:38:14;;;;;;;5.03;1.13;;;16.70;96.40;;;;;;4117634;28;20097;-82
2022/07/28 08:40:17;;;;;;;3.78;1.02;;;16.80;96.00;;;;;;4134425;28;20049;-82
2022/07/28 08:42:29;;;;;;;4.20;0.65;;;17.00;96.00;;;;;;4134976;28;20121;-82
2022/07/28 08:44:53;;;;;;;2.55;0.65;;;17.10;95.80;;;;;;4117403;28;20062;-82
2022/07/28 08:46:55;;;;;;;2.33;0.75;;;17.20;95.30;;;;;;4117329;28;20058;-82
2022/07/28 08:48:55;;;;;;;4.03;0.77;;;17.40;95.10;;;;;;4134638;28;20566;-82
2022/07/28 08:51:04;;;;;;;4.53;0.82;;;17.50;94.80;;;;;;4117529;28;20062;-83
2022/07/28 08:53:06;;;;;;;2.70;0.70;;;17.70;94.40;;;;;;4134561;28;20086;-82
2022/07/28 08:55:07;;;;;;;4.40;1.13;;;17.80;94.10;;;;;;4117053;28;20148;-82
2022/07/28 08:57:15;;;;;;;2.17;0.80;;;17.90;93.70;;;;;;4134416;28;20038;-82
2022/07/28 08:59:16;;;;;;;1.73;0.70;;;18.00;93.50;;;;;;4117651;28;20527;-82
2022/07/28 09:01:17;;;;;;;0.88;0.50;;;18.20;93.20;;;;;;4135123;28;20049;-82
2022/07/28 09:03:18;;;;;;;2.20;0.63;;;18.50;93.10;;;;;;4134525;28;20050;-82
2022/07/28 09:05:21;;;;;;;5.15;0.85;;;18.80;92.80;;;;;;4117454;28;20400;-82
2022/07/28 09:07:22;;;;;;;1.77;0.40;;;19.20;92.90;;;;;;4149873;28;20050;-82
2022/07/28 09:09:23;;;;;;;3.67;1.10;;;19.40;92.10;;;;;;4117269;28;20097;-82
2022/07/28 09:11:26;;;;;;;1.95;0.70;;;19.80;91.70;;;;;;4117273;28;20129;-83
2022/07/28 09:13:27;;;;;;;2.17;0.50;;;20.10;90.90;;;;;;4116654;28;20122;-83
2022/07/28 09:15:28;;;;;;;3.88;0.60;;;20.30;90.50;;;;;;4134563;28;20046;-83
2022/07/28 09:17:29;;;;;;;16.08;1.83;;;20.50;90.20;;;;;;4116894;28;20049;-82
2022/07/28 09:19:30;;;;;;;2.20;0.70;;;20.70;89.50;;;;;;4116674;28;20126;-82
2022/07/28 09:21:31;;;;;;;5.15;1.00;;;20.90;88.50;;;;;;4134562;28;20042;-82
2022/07/28 09:23:47;;;;;;;4.60;0.90;;;21.20;87.80;;;;;;4137908;28;20046;-83
2022/07/28 09:25:48;;;;;;;2.10;0.85;;;21.60;86.60;;;;;;4134372;28;20089;-83
2022/07/28 09:27:50;;;;;;;2.20;0.80;;;21.90;86.80;;;;;;4119629;28;20043;-82
2022/07/28 09:29:59;;;;;;;8.27;1.00;;;22.30;85.90;;;;;;4137472;28;20073;-82
2022/07/28 09:32:00;;;;;;;2.35;0.50;;;22.40;83.80;;;;;;4117321;28;20053;-82
2022/07/28 09:34:04;;;;;;;3.17;0.57;;;22.50;83.60;;;;;;4116771;28;20138;-82
2022/07/28 09:36:14;;;;;;;3.22;1.00;;;22.50;82.50;;;;;;4116617;28;20085;-83
2022/07/28 09:38:16;;;;;;;4.32;0.80;;;22.50;81.50;;;;;;4116424;28;20046;-83
2022/07/28 09:40:17;;;;;;;2.97;0.80;;;22.60;81.50;;;;;;4148965;28;20053;-82
2022/07/28 09:42:19;;;;;;;1.73;0.55;;;22.60;80.70;;;;;;4116555;28;20098;-82
2022/07/28 09:44:21;;;;;;;2.03;0.50;;;22.70;80.40;;;;;;4116274;28;20109;-82
2022/07/28 09:46:24;;;;;;;0.63;0.40;;;22.70;79.50;;;;;;4148962;28;20584;-82
2022/07/28 09:48:24;;;;;;;1.85;0.43;;;22.50;78.50;;;;;;4133815;28;20082;-82
2022/07/28 09:50:29;;;;;;;3.10;0.30;;;22.30;78.00;;;;;;4116519;28;20069;-82
2022/07/28 09:52:32;;;;;;;2.63;0.32;;;22.10;77.70;;;;;;4148917;28;20517;-82
2022/07/28 09:54:33;;;;;;;1.85;0.40;;;21.80;77.80;;;;;;4148913;28;20057;-82
2022/07/28 09:56:40;;;;;;;1.45;0.30;;;21.70;78.00;;;;;;4116246;28;20105;-82
2022/07/28 09:58:53;;;;;;;0.52;0.20;;;21.40;78.30;;;;;;4133651;28;20050;-82
2022/07/28 10:01:11;;;;;;;0.20;0.17;;;21.30;76.80;;;;;;4133642;28;20129;-82
2022/07/28 10:03:23;;;;;;;5.03;0.40;;;21.20;75.00;;;;;;4133311;28;20422;-82
2022/07/28 10:05:38;;;;;;;1.92;0.40;;;21.40;76.70;;;;;;4115660;28;20313;-81
2022/07/28 10:07:48;;;;;;;0.47;0.30;;;21.60;75.20;;;;;;4100644;29;20078;-83
2022/07/28 10:10:06;;;;;;;1.88;0.60;;;22.00;74.80;;;;;;4134001;28;20569;-82
2022/07/28 10:12:18;;;;;;;2.75;0.85;;;22.40;73.10;;;;;;4133468;28;20082;-82
2022/07/28 10:14:31;;;;;;;1.92;0.40;;;22.70;73.00;;;;;;4116482;28;20095;-83
2022/07/28 10:16:41;;;;;;;3.42;0.50;;;23.10;71.90;;;;;;4148612;28;20072;-82
2022/07/28 10:18:42;;;;;;;2.28;0.38;;;23.40;71.10;;;;;;4148398;28;20046;-82
2022/07/28 10:20:43;;;;;;;1.55;0.50;;;23.50;71.70;;;;;;4116013;28;20058;-82
2022/07/28 10:22:45;;;;;;;1.23;0.50;;;23.40;70.20;;;;;;4133408;28;20491;-82
2022/07/28 10:24:51;;;;;;;1.55;0.28;;;23.30;69.20;;;;;;4148359;28;20116;-82
2022/07/28 10:26:56;;;;;;;4.35;0.80;;;23.30;68.60;;;;;;4116342;28;20054;-83
2022/07/28 10:28:59;;;;;;;0.73;0.30;;;23.30;68.00;;;;;;4147873;28;20049;-82
2022/07/28 10:31:00;;;;;;;0.73;0.32;;;23.30;68.20;;;;;;4116115;28;20069;-82
2022/07/28 10:33:05;;;;;;;3.70;0.43;;;23.40;68.20;;;;;;4116017;28;20061;-82
2022/07/28 10:35:07;;;;;;;1.00;0.40;;;23.50;67.70;;;;;;4148190;28;20088;-82
2022/07/28 10:37:21;;;;;;;2.63;0.30;;;23.50;67.10;;;;;;4133381;28;20092;-82
2022/07/28 10:39:25;;;;;;;1.48;0.60;;;23.50;67.10;;;;;;4115750;28;20225;-83
2022/07/28 10:41:32;;;;;;;2.58;0.45;;;23.50;67.50;;;;;;4148254;28;20064;-82
2022/07/28 10:43:35;;;;;;;0.55;0.22;;;23.50;67.70;;;;;;4133428;28;20038;-83
2022/07/28 10:45:37;;;;;;;8.57;2.25;;;23.50;67.60;;;;;;4115351;28;20050;-82